Time;durP1;ratioP1;P1;durP2;ratioP2;P2;SDS_P1;SDS_P2;PMS_P1;PMS_P2;Temp;Humidity;BMP_temperature;BMP_pressure;BME280_temperature;BME280_humidity;BME280_pressure;Samples;Min_cycle;Max_cycle;Signal;HPM_P1;HPM_P2
2022/07/14 00:01:24;;;;;;;2.55;1.50;;;;;;;;;;4955602;28;20187;-81
2022/07/14 00:03:50;;;;;;;1.47;1.20;;;;;;;;;;4952526;28;20275;-82
2022/07/14 00:06:16;;;;;;;1.97;1.20;;;;;;;;;;4954834;28;20209;-82
2022/07/14 00:08:44;;;;;;;1.30;1.20;;;;;;;;;;4948407;28;20185;-82
2022/07/14 00:11:10;;;;;;;1.23;1.20;;;;;;;;;;4950518;28;20188;-82
2022/07/14 00:13:35;;;;;;;1.33;1.23;;;;;;;;;;4952844;28;20181;-83
2022/07/14 00:16:00;;;;;;;2.03;1.13;;;;;;;;;;4949154;28;20219;-82
2022/07/14 00:18:25;;;;;;;1.33;1.23;;;;;;;;;;4956530;28;20196;-82
2022/07/14 00:20:50;;;;;;;1.40;1.30;;;;;;;;;;4952543;28;20248;-82
2022/07/14 00:23:16;;;;;;;1.80;1.10;;;;;;;;;;4952729;28;20195;-83
2022/07/14 00:25:42;;;;;;;1.60;1.50;;;;;;;;;;4950943;28;20212;-82
2022/07/14 00:28:07;;;;;;;3.73;1.40;;;;;;;;;;4967393;28;20180;-82
2022/07/14 00:30:32;;;;;;;2.97;1.27;;;;;;;;;;4954660;28;20185;-83
2022/07/14 00:32:58;;;;;;;1.73;1.50;;;;;;;;;;4955552;28;20197;-84
2022/07/14 00:35:23;;;;;;;2.83;1.63;;;;;;;;;;4950038;28;20184;-82
2022/07/14 00:37:48;;;;;;;2.83;1.17;;;;;;;;;;4952560;28;20189;-83
2022/07/14 00:40:13;;;;;;;1.40;1.30;;;;;;;;;;4950244;29;20192;-82
2022/07/14 00:42:45;;;;;;;1.20;1.20;;;;;;;;;;4947850;28;20180;-83
2022/07/14 00:45:11;;;;;;;1.30;1.20;;;;;;;;;;4957321;28;20212;-83
2022/07/14 00:47:37;;;;;;;2.03;1.47;;;;;;;;;;4952793;28;20188;-83
2022/07/14 00:50:03;;;;;;;1.67;1.23;;;;;;;;;;4952285;28;20232;-82
2022/07/14 00:52:28;;;;;;;1.83;1.30;;;;;;;;;;4948178;28;20196;-83
2022/07/14 00:54:54;;;;;;;1.83;1.40;;;;;;;;;;4953667;28;20216;-83
2022/07/14 00:57:20;;;;;;;1.97;1.20;;;;;;;;;;4954089;28;20200;-83
2022/07/14 00:59:45;;;;;;;1.50;1.37;;;;;;;;;;4950450;28;20185;-83
2022/07/14 01:02:11;;;;;;;1.43;1.33;;;;;;;;;;4952432;28;20192;-81
2022/07/14 01:04:36;;;;;;;1.37;1.27;;;;;;;;;;4952305;29;20188;-83
2022/07/14 01:07:01;;;;;;;1.60;1.30;;;;;;;;;;4951463;28;20188;-83
2022/07/14 01:09:26;;;;;;;2.40;1.20;;;;;;;;;;4952561;29;20184;-82
2022/07/14 01:11:52;;;;;;;1.53;1.43;;;;;;;;;;4955085;28;20190;-82
2022/07/14 01:14:17;;;;;;;2.27;1.20;;;;;;;;;;4951490;28;20187;-82
2022/07/14 01:16:42;;;;;;;2.47;1.30;;;;;;;;;;4951791;28;20192;-83
2022/07/14 01:19:08;;;;;;;2.87;1.47;;;;;;;;;;4952576;28;20195;-82
2022/07/14 01:21:34;;;;;;;1.17;1.10;;;;;;;;;;4947965;28;20191;-82
2022/07/14 01:23:59;;;;;;;1.40;1.30;;;;;;;;;;4956593;28;20231;-81
2022/07/14 01:26:24;;;;;;;2.63;1.80;;;;;;;;;;4956266;28;20262;-83
2022/07/14 01:28:50;;;;;;;2.33;1.40;;;;;;;;;;4952483;28;20175;-83
2022/07/14 01:31:15;;;;;;;3.50;1.10;;;;;;;;;;4954203;28;20183;-83
2022/07/14 01:33:41;;;;;;;1.40;1.30;;;;;;;;;;4950557;28;20188;-82
2022/07/14 01:36:09;;;;;;;2.17;1.30;;;;;;;;;;4951650;29;20191;-82
2022/07/14 01:38:34;;;;;;;2.50;1.50;;;;;;;;;;4951246;28;20187;-83
2022/07/14 01:40:59;;;;;;;1.40;1.30;;;;;;;;;;4960949;28;20241;-82
2022/07/14 01:43:25;;;;;;;1.40;1.30;;;;;;;;;;4952764;28;20192;-82
2022/07/14 01:45:50;;;;;;;1.63;1.33;;;;;;;;;;4947495;28;20277;-83
2022/07/14 01:48:15;;;;;;;1.40;1.30;;;;;;;;;;4954018;28;20194;-82
2022/07/14 01:50:41;;;;;;;1.03;1.00;;;;;;;;;;4951152;28;20262;-83
2022/07/14 01:53:06;;;;;;;3.80;1.50;;;;;;;;;;4952144;28;20180;-81
2022/07/14 01:55:31;;;;;;;2.03;1.33;;;;;;;;;;4952373;28;20199;-82
2022/07/14 01:57:56;;;;;;;1.70;1.33;;;;;;;;;;4954052;28;20188;-83
2022/07/14 02:00:22;;;;;;;2.07;1.50;;;;;;;;;;4953802;28;20274;-82
2022/07/14 02:02:47;;;;;;;2.97;1.37;;;;;;;;;;4948679;28;20209;-82
2022/07/14 02:05:12;;;;;;;1.70;1.60;;;;;;;;;;4948951;28;20218;-82
2022/07/14 02:07:37;;;;;;;2.13;1.30;;;;;;;;;;4949456;29;20206;-82
2022/07/14 02:12:47;;;;;;;3.17;1.70;;;;;;;;;;4953326;29;20244;-83
2022/07/14 02:15:13;;;;;;;1.30;1.20;;;;;;;;;;4950139;28;20266;-82
2022/07/14 02:17:38;;;;;;;1.60;1.50;;;;;;;;;;4954544;28;20177;-83
2022/07/14 02:20:04;;;;;;;1.93;1.30;;;;;;;;;;4946224;28;20194;-83
2022/07/14 02:22:29;;;;;;;1.77;1.67;;;;;;;;;;4952668;28;20181;-82
2022/07/14 02:24:54;;;;;;;1.90;1.00;;;;;;;;;;4954782;28;20213;-83
2022/07/14 02:27:19;;;;;;;1.50;1.40;;;;;;;;;;4949195;28;20184;-82
2022/07/14 02:29:45;;;;;;;4.30;1.37;;;;;;;;;;4951487;28;20258;-82
2022/07/14 02:32:10;;;;;;;1.57;1.47;;;;;;;;;;4950874;28;20180;-82
2022/07/14 02:34:35;;;;;;;3.10;1.53;;;;;;;;;;4948362;28;20181;-82
2022/07/14 02:37:01;;;;;;;1.83;1.63;;;;;;;;;;4955479;28;20183;-82
2022/07/14 02:39:26;;;;;;;1.83;1.40;;;;;;;;;;4951472;28;20202;-82
2022/07/14 02:41:51;;;;;;;2.10;1.50;;;;;;;;;;4945765;28;20232;-85
2022/07/14 02:44:17;;;;;;;1.70;1.50;;;;;;;;;;4951045;28;20208;-84
2022/07/14 02:46:42;;;;;;;1.63;1.30;;;;;;;;;;4949176;28;20205;-84
2022/07/14 02:49:07;;;;;;;1.90;1.50;;;;;;;;;;4945372;28;20605;-84
2022/07/14 02:51:33;;;;;;;1.50;1.40;;;;;;;;;;4951523;28;20189;-85
2022/07/14 02:53:58;;;;;;;1.60;1.50;;;;;;;;;;4951849;28;20191;-85
2022/07/14 02:56:24;;;;;;;1.50;1.40;;;;;;;;;;4952451;28;20287;-85
2022/07/14 02:58:49;;;;;;;1.63;1.53;;;;;;;;;;4950423;28;20189;-85
2022/07/14 03:01:14;;;;;;;1.63;1.53;;;;;;;;;;4950992;29;20193;-84
2022/07/14 03:03:39;;;;;;;1.67;1.53;;;;;;;;;;4949546;28;20196;-84
2022/07/14 03:06:12;;;;;;;2.33;1.40;;;;;;;;;;4953467;28;20345;-85
2022/07/14 03:08:38;;;;;;;1.40;1.30;;;;;;;;;;4944446;28;20191;-86
2022/07/14 03:11:04;;;;;;;1.97;1.50;;;;;;;;;;4949978;28;20174;-85
2022/07/14 03:13:29;;;;;;;2.33;1.70;;;;;;;;;;4949900;29;20177;-85
2022/07/14 03:15:54;;;;;;;1.83;1.57;;;;;;;;;;4949426;28;20178;-85
2022/07/14 03:18:20;;;;;;;1.97;1.37;;;;;;;;;;4950908;28;20213;-85
2022/07/14 03:20:45;;;;;;;1.73;1.50;;;;;;;;;;4952251;28;21483;-84
2022/07/14 03:23:10;;;;;;;1.40;1.30;;;;;;;;;;4949464;28;20209;-83
2022/07/14 03:25:36;;;;;;;1.77;1.43;;;;;;;;;;4950782;28;20205;-84
2022/07/14 03:28:01;;;;;;;2.40;1.50;;;;;;;;;;4951290;28;20180;-85
2022/07/14 03:30:26;;;;;;;1.30;1.20;;;;;;;;;;4954271;28;20178;-83
2022/07/14 03:32:51;;;;;;;1.40;1.30;;;;;;;;;;4949509;28;20185;-85
2022/07/14 03:35:17;;;;;;;1.43;1.30;;;;;;;;;;4956665;28;20185;-85
2022/07/14 03:37:42;;;;;;;2.90;1.40;;;;;;;;;;4955563;28;20179;-85
2022/07/14 03:40:07;;;;;;;1.70;1.60;;;;;;;;;;4954749;28;20268;-85
2022/07/14 03:42:33;;;;;;;2.77;1.50;;;;;;;;;;4952427;28;20270;-84
2022/07/14 03:44:58;;;;;;;1.50;1.40;;;;;;;;;;4955207;28;20210;-84
2022/07/14 03:47:26;;;;;;;3.10;1.50;;;;;;;;;;4954973;28;20236;-86
2022/07/14 03:49:51;;;;;;;1.30;1.23;;;;;;;;;;4955505;28;20247;-84
2022/07/14 03:52:17;;;;;;;2.20;1.20;;;;;;;;;;4951064;28;20180;-84
2022/07/14 03:54:44;;;;;;;3.83;1.73;;;;;;;;;;4953886;28;20182;-84
2022/07/14 03:57:09;;;;;;;1.50;1.40;;;;;;;;;;4959153;28;20271;-84
2022/07/14 03:59:40;;;;;;;1.50;1.40;;;;;;;;;;4954996;28;20178;-84
2022/07/14 04:02:05;;;;;;;1.50;1.40;;;;;;;;;;4950220;28;20239;-84
2022/07/14 04:04:31;;;;;;;2.73;1.40;;;;;;;;;;4965816;28;20177;-84
2022/07/14 04:06:56;;;;;;;1.40;1.30;;;;;;;;;;4958969;28;20182;-82
2022/07/14 04:09:21;;;;;;;2.33;1.70;;;;;;;;;;4954177;28;20272;-82
2022/07/14 04:11:46;;;;;;;2.23;1.73;;;;;;;;;;4951107;28;20193;-82
2022/07/14 04:14:12;;;;;;;1.63;1.40;;;;;;;;;;4953191;28;20190;-83
2022/07/14 04:16:38;;;;;;;1.53;1.40;;;;;;;;;;4948567;28;20186;-82
2022/07/14 04:19:03;;;;;;;1.20;1.10;;;;;;;;;;4954366;28;20183;-81
2022/07/14 04:21:28;;;;;;;2.53;1.30;;;;;;;;;;4951559;28;20197;-82
2022/07/14 04:23:53;;;;;;;3.43;1.60;;;;;;;;;;4952826;28;20190;-82
2022/07/14 04:26:19;;;;;;;2.73;2.33;;;;;;;;;;4948776;28;20206;-82
2022/07/14 04:28:44;;;;;;;1.47;1.37;;;;;;;;;;4952220;28;20185;-82
2022/07/14 04:31:09;;;;;;;3.90;1.50;;;;;;;;;;4949714;28;20251;-81
2022/07/14 04:33:35;;;;;;;3.90;1.50;;;;;;;;;;4951662;28;20185;-82
2022/07/14 04:36:00;;;;;;;2.80;1.83;;;;;;;;;;4953690;28;20193;-82
2022/07/14 04:38:25;;;;;;;1.70;1.50;;;;;;;;;;4953877;28;20193;-82
2022/07/14 04:40:52;;;;;;;6.00;1.70;;;;;;;;;;4948823;28;20237;-82
2022/07/14 04:43:18;;;;;;;1.50;1.40;;;;;;;;;;4953166;28;20347;-82
2022/07/14 04:45:43;;;;;;;1.83;1.57;;;;;;;;;;4951080;28;20274;-82
2022/07/14 04:48:08;;;;;;;2.30;1.40;;;;;;;;;;4948817;28;20209;-82
2022/07/14 04:53:18;;;;;;;3.37;1.77;;;;;;;;;;4954567;29;20274;-83
2022/07/14 04:55:43;;;;;;;1.50;1.37;;;;;;;;;;4951700;28;20320;-82
2022/07/14 04:58:09;;;;;;;4.37;1.67;;;;;;;;;;4949925;28;20199;-82
2022/07/14 05:00:34;;;;;;;1.53;1.43;;;;;;;;;;4970649;28;20191;-83
2022/07/14 05:03:01;;;;;;;2.43;1.80;;;;;;;;;;4954190;28;20183;-83
2022/07/14 05:05:26;;;;;;;1.67;1.57;;;;;;;;;;4948217;28;20203;-82
2022/07/14 05:07:52;;;;;;;2.23;1.70;;;;;;;;;;4947776;29;20176;-83
2022/07/14 05:10:17;;;;;;;1.80;1.63;;;;;;;;;;4950853;28;20266;-83
2022/07/14 05:12:42;;;;;;;1.53;1.43;;;;;;;;;;4947914;28;20197;-82
2022/07/14 05:15:08;;;;;;;1.20;1.20;;;;;;;;;;4951149;28;20204;-83
2022/07/14 05:17:33;;;;;;;2.47;1.30;;;;;;;;;;4952590;29;20184;-82
2022/07/14 05:19:58;;;;;;;2.47;1.20;;;;;;;;;;4946841;28;20262;-82
2022/07/14 05:22:24;;;;;;;3.33;1.43;;;;;;;;;;4954621;28;20273;-83
2022/07/14 05:24:50;;;;;;;3.17;2.33;;;;;;;;;;4950442;28;20251;-83
2022/07/14 05:27:15;;;;;;;1.80;1.70;;;;;;;;;;4953224;28;20269;-82
2022/07/14 05:29:40;;;;;;;1.80;1.40;;;;;;;;;;4954385;28;20180;-83
2022/07/14 05:32:05;;;;;;;3.83;1.90;;;;;;;;;;4954961;28;20230;-80
2022/07/14 05:34:31;;;;;;;2.47;1.70;;;;;;;;;;4950599;28;20211;-84
2022/07/14 05:36:59;;;;;;;1.97;1.73;;;;;;;;;;4954317;28;20210;-83
2022/07/14 05:39:24;;;;;;;3.13;1.60;;;;;;;;;;4949586;28;20251;-83
2022/07/14 05:41:49;;;;;;;1.57;1.47;;;;;;;;;;4949970;28;20210;-83
2022/07/14 05:44:14;;;;;;;3.50;1.60;;;;;;;;;;4951620;29;20265;-83
2022/07/14 05:46:40;;;;;;;1.90;1.80;;;;;;;;;;4952235;28;20209;-83
2022/07/14 05:49:05;;;;;;;2.47;1.87;;;;;;;;;;4961305;28;20282;-81
2022/07/14 05:51:30;;;;;;;2.97;2.20;;;;;;;;;;4951703;29;20307;-83
2022/07/14 05:53:55;;;;;;;2.10;1.83;;;;;;;;;;4948471;28;20212;-82
2022/07/14 05:56:21;;;;;;;1.40;1.30;;;;;;;;;;4953761;28;20204;-83
2022/07/14 05:58:46;;;;;;;1.57;1.47;;;;;;;;;;4945963;28;20272;-82
2022/07/14 06:01:15;;;;;;;1.47;1.37;;;;;;;;;;4954125;28;20177;-83
2022/07/14 06:03:40;;;;;;;2.77;1.40;;;;;;;;;;4950846;28;20193;-82
2022/07/14 06:06:08;;;;;;;2.40;1.40;;;;;;;;;;4949494;28;20245;-80
2022/07/14 06:08:33;;;;;;;6.13;1.90;;;;;;;;;;4946152;28;20261;-83
2022/07/14 06:10:59;;;;;;;1.43;1.33;;;;;;;;;;4948152;28;20291;-84
2022/07/14 06:13:25;;;;;;;2.57;1.60;;;;;;;;;;4947256;28;20259;-81
2022/07/14 06:15:51;;;;;;;2.93;1.50;;;;;;;;;;4946583;28;20197;-82
2022/07/14 06:18:16;;;;;;;1.57;1.47;;;;;;;;;;4954650;28;20227;-82
2022/07/14 06:20:41;;;;;;;2.53;1.40;;;;;;;;;;4956630;28;20176;-84
2022/07/14 06:23:09;;;;;;;1.47;1.33;;;;;;;;;;4956955;28;20181;-83
2022/07/14 06:25:34;;;;;;;2.05;1.70;;;;;;;;;;4954609;28;20197;-83
2022/07/14 06:28:00;;;;;;;2.83;1.52;;;;;;;;;;4947546;28;20182;-83
2022/07/14 06:30:25;;;;;;;1.58;1.48;;;;;;;;;;4957784;28;20181;-83
2022/07/14 06:32:50;;;;;;;1.70;1.60;;;;;;;;;;4947238;28;20276;-82
2022/07/14 06:35:16;;;;;;;1.80;1.58;;;;;;;;;;4950869;28;20221;-82
2022/07/14 06:37:41;;;;;;;1.60;1.50;;;;;;;;;;4951145;28;20272;-82
2022/07/14 06:40:07;;;;;;;2.40;1.42;;;;;;;;;;4950699;28;20217;-83
2022/07/14 06:42:33;;;;;;;1.73;1.52;;;;;;;;;;4957431;28;20191;-84
2022/07/14 06:44:58;;;;;;;2.30;1.60;;;;;;;;;;4948722;28;20264;-84
2022/07/14 06:47:23;;;;;;;1.73;1.50;;;;;;;;;;4952074;28;20236;-83
2022/07/14 06:49:48;;;;;;;3.78;1.40;;;;;;;;;;4949773;28;20240;-83
2022/07/14 06:52:13;;;;;;;1.50;1.40;;;;;;;;;;4953526;28;20181;-84
2022/07/14 06:54:39;;;;;;;5.32;2.13;;;;;;;;;;4946158;28;20181;-82
2022/07/14 06:57:04;;;;;;;2.80;1.73;;;;;;;;;;4947342;28;20224;-83
2022/07/14 06:59:29;;;;;;;4.03;1.70;;;;;;;;;;4944095;28;20185;-80
2022/07/14 07:01:55;;;;;;;6.80;2.00;;;;;;;;;;4943552;28;20269;-84
2022/07/14 07:04:20;;;;;;;2.05;1.65;;;;;;;;;;4952436;28;20184;-84
2022/07/14 07:06:45;;;;;;;1.40;1.30;;;;;;;;;;4949982;28;20247;-85
2022/07/14 07:09:11;;;;;;;2.22;1.65;;;;;;;;;;4955349;28;20268;-84
2022/07/14 07:11:37;;;;;;;3.72;1.58;;;;;;;;;;4959090;28;20268;-83
2022/07/14 07:14:03;;;;;;;2.85;1.80;;;;;;;;;;4953489;28;20245;-84
2022/07/14 07:16:28;;;;;;;2.95;1.60;;;;;;;;;;4956727;28;20188;-84
2022/07/14 07:18:53;;;;;;;1.63;1.52;;;;;;;;;;4948528;28;20181;-83
2022/07/14 07:21:20;;;;;;;1.67;1.58;;;;;;;;;;4955972;28;20186;-83
2022/07/14 07:23:46;;;;;;;1.60;1.50;;;;;;;;;;4954327;28;20185;-83
2022/07/14 07:26:12;;;;;;;3.05;2.03;;;;;;;;;;4956359;28;20210;-84
2022/07/14 07:28:37;;;;;;;6.75;1.90;;;;;;;;;;4958169;28;20341;-84
2022/07/14 07:31:03;;;;;;;4.43;1.80;;;;;;;;;;4952752;28;20177;-83
2022/07/14 07:33:28;;;;;;;3.90;1.73;;;;;;;;;;4955899;28;20472;-82
2022/07/14 07:35:53;;;;;;;1.70;1.58;;;;;;;;;;4948943;29;20284;-82
2022/07/14 07:38:19;;;;;;;3.10;1.60;;;;;;;;;;4956892;28;20296;-85
2022/07/14 07:40:47;;;;;;;1.30;1.20;;;;;;;;;;4956737;28;20275;-82
2022/07/14 07:43:12;;;;;;;2.95;1.60;;;;;;;;;;4953567;28;20190;-83
2022/07/14 07:45:37;;;;;;;1.67;1.40;;;;;;;;;;4958817;28;20200;-85
2022/07/14 07:48:03;;;;;;;1.40;1.30;;;;;;;;;;4954767;28;20328;-83
2022/07/14 07:50:29;;;;;;;7.32;2.53;;;;;;;;;;4956371;28;20256;-83
2022/07/14 07:52:54;;;;;;;1.50;1.40;;;;;;;;;;4954895;28;20241;-82
2022/07/14 07:55:19;;;;;;;2.92;1.70;;;;;;;;;;4954187;28;20293;-84
2022/07/14 07:57:44;;;;;;;2.60;1.58;;;;;;;;;;4958281;28;20173;-82
2022/07/14 08:00:10;;;;;;;4.97;1.50;;;;;;;;;;4953667;28;20259;-85
2022/07/14 08:02:48;;;;;;;2.20;1.55;;;;;;;;;;4970804;28;20237;-84
2022/07/14 08:05:14;;;;;;;1.38;1.27;;;;;;;;;;4955358;28;20209;-83
2022/07/14 08:07:40;;;;;;;3.78;1.77;;;;;;;;;;4949449;28;20181;-83
2022/07/14 08:10:06;;;;;;;1.77;1.67;;;;;;;;;;4953083;28;20195;-84
2022/07/14 08:12:31;;;;;;;1.83;1.58;;;;;;;;;;4947387;29;20181;-85
2022/07/14 08:14:56;;;;;;;1.70;1.60;;;;;;;;;;4955420;28;20313;-84
2022/07/14 08:17:22;;;;;;;1.45;1.35;;;;;;;;;;4956402;28;20196;-83
2022/07/14 08:19:47;;;;;;;1.45;1.35;;;;;;;;;;4956843;28;20181;-83
2022/07/14 08:22:13;;;;;;;1.60;1.50;;;;;;;;;;4952985;28;20360;-85
2022/07/14 08:24:38;;;;;;;1.75;1.50;;;;;;;;;;4951709;28;20177;-83
2022/07/14 08:27:03;;;;;;;1.88;1.45;;;;;;;;;;4953510;28;20203;-83
2022/07/14 08:29:29;;;;;;;1.30;1.25;;;;;;;;;;4958834;28;20183;-82
2022/07/14 08:31:54;;;;;;;1.90;1.70;;;;;;;;;;4968950;28;20260;-83
2022/07/14 08:34:19;;;;;;;1.70;1.60;;;;;;;;;;4953146;29;20212;-84
2022/07/14 08:36:44;;;;;;;1.67;1.58;;;;;;;;;;4952227;28;20181;-85
2022/07/14 08:39:10;;;;;;;3.53;1.52;;;;;;;;;;4946940;28;20189;-86
2022/07/14 08:41:36;;;;;;;1.98;1.77;;;;;;;;;;4954849;28;20180;-84
2022/07/14 08:44:01;;;;;;;1.50;1.40;;;;;;;;;;4951403;28;20193;-84
2022/07/14 08:46:26;;;;;;;1.35;1.27;;;;;;;;;;4952780;28;20205;-84
2022/07/14 08:48:52;;;;;;;1.60;1.50;;;;;;;;;;4949725;28;20182;-84
2022/07/14 08:51:18;;;;;;;1.52;1.40;;;;;;;;;;4952225;28;20237;-83
2022/07/14 08:53:44;;;;;;;1.50;1.40;;;;;;;;;;4947589;28;20328;-85
2022/07/14 08:56:10;;;;;;;2.10;1.25;;;;;;;;;;4972358;28;20216;-85
2022/07/14 08:58:36;;;;;;;1.67;1.58;;;;;;;;;;4953554;28;20181;-84
2022/07/14 09:01:01;;;;;;;1.58;1.48;;;;;;;;;;4957196;28;20462;-85
2022/07/14 09:03:26;;;;;;;1.52;1.42;;;;;;;;;;4950770;28;20178;-83
2022/07/14 09:05:53;;;;;;;2.75;1.63;;;;;;;;;;4951410;28;20290;-85
2022/07/14 09:08:18;;;;;;;2.38;1.95;;;;;;;;;;4961667;28;20268;-85
2022/07/14 09:10:44;;;;;;;1.70;1.60;;;;;;;;;;4955688;28;20266;-84
2022/07/14 09:13:10;;;;;;;1.50;1.40;;;;;;;;;;4957493;28;20187;-84
2022/07/14 09:15:45;;;;;;;2.50;1.50;;;;;;;;;;4952367;28;20252;-84
2022/07/14 09:18:17;;;;;;;1.83;1.58;;;;;;;;;;4955869;28;20195;-84
2022/07/14 09:20:42;;;;;;;3.33;1.60;;;;;;;;;;4953197;28;20288;-83
2022/07/14 09:23:08;;;;;;;1.42;1.30;;;;;;;;;;4956184;28;20276;-84
2022/07/14 09:25:37;;;;;;;2.75;1.50;;;;;;;;;;4946435;28;20193;-85
2022/07/14 09:28:03;;;;;;;1.85;1.65;;;;;;;;;;4952870;28;20170;-84
2022/07/14 09:30:29;;;;;;;3.42;1.70;;;;;;;;;;4964452;28;20181;-84
2022/07/14 09:32:56;;;;;;;2.42;1.90;;;;;;;;;;4951581;28;20200;-84
2022/07/14 09:35:42;;;;;;;1.85;1.75;;;;;;;;;;4952218;28;20217;-84
2022/07/14 09:38:17;;;;;;;1.83;1.73;;;;;;;;;;4968793;28;20194;-83
2022/07/14 09:40:43;;;;;;;3.40;1.60;;;;;;;;;;4950561;28;20204;-85
2022/07/14 09:43:09;;;;;;;2.00;1.80;;;;;;;;;;4950534;28;20284;-85
2022/07/14 09:45:36;;;;;;;1.90;1.80;;;;;;;;;;4950421;28;20193;-83
2022/07/14 09:48:07;;;;;;;2.28;1.90;;;;;;;;;;4950453;28;20279;-84
2022/07/14 09:50:37;;;;;;;1.52;1.42;;;;;;;;;;4950720;28;20295;-85
2022/07/14 09:53:12;;;;;;;3.10;1.88;;;;;;;;;;4954075;28;20177;-84
2022/07/14 09:55:39;;;;;;;3.10;1.75;;;;;;;;;;4950355;28;20228;-84
2022/07/14 09:58:05;;;;;;;2.17;2.08;;;;;;;;;;4950628;28;20173;-85
2022/07/14 10:00:30;;;;;;;2.05;1.90;;;;;;;;;;4949575;28;20248;-85
2022/07/14 10:02:56;;;;;;;2.63;2.00;;;;;;;;;;4957066;28;20177;-85
2022/07/14 10:05:21;;;;;;;2.08;1.98;;;;;;;;;;4956994;28;20205;-83
2022/07/14 10:07:48;;;;;;;2.30;2.10;;;;;;;;;;4951187;28;20181;-84
2022/07/14 10:10:15;;;;;;;2.28;2.00;;;;;;;;;;4951968;28;20185;-85
2022/07/14 10:12:41;;;;;;;2.78;1.52;;;;;;;;;;4950312;28;20272;-83
2022/07/14 10:15:07;;;;;;;3.15;2.08;;;;;;;;;;4942534;28;20242;-82
2022/07/14 10:17:37;;;;;;;2.03;1.75;;;;;;;;;;4953415;28;20184;-84
2022/07/14 10:20:03;;;;;;;2.80;2.00;;;;;;;;;;4942222;28;20181;-83
2022/07/14 10:22:29;;;;;;;4.80;1.90;;;;;;;;;;4952587;28;20189;-84
2022/07/14 10:24:54;;;;;;;2.45;2.25;;;;;;;;;;4957280;28;20185;-83
2022/07/14 10:27:20;;;;;;;3.50;2.20;;;;;;;;;;4948774;28;20228;-84
2022/07/14 10:29:52;;;;;;;3.88;2.25;;;;;;;;;;4950733;28;20177;-81
2022/07/14 10:32:36;;;;;;;3.10;2.70;;;;;;;;;;4947802;28;20178;-85
2022/07/14 10:35:20;;;;;;;3.67;2.28;;;;;;;;;;4969887;28;20188;-84
2022/07/14 10:37:55;;;;;;;2.25;2.00;;;;;;;;;;4950910;28;20189;-84
2022/07/14 10:40:33;;;;;;;5.68;2.08;;;;;;;;;;4970058;28;20265;-83
2022/07/14 10:43:12;;;;;;;3.10;2.33;;;;;;;;;;4955580;28;20188;-83
2022/07/14 10:45:54;;;;;;;4.18;2.00;;;;;;;;;;4958904;28;20202;-84
2022/07/14 10:48:28;;;;;;;5.10;1.90;;;;;;;;;;4960843;28;20280;-83
2022/07/14 10:51:12;;;;;;;2.58;2.35;;;;;;;;;;4972891;28;20232;-83
2022/07/14 10:53:56;;;;;;;4.32;2.70;;;;;;;;;;4978877;28;20192;-83
2022/07/14 10:56:25;;;;;;;3.53;2.30;;;;;;;;;;4960022;28;20209;-84
2022/07/14 10:59:10;;;;;;;2.15;1.92;;;;;;;;;;4958342;28;20182;-86
2022/07/14 11:01:35;;;;;;;3.88;2.13;;;;;;;;;;4951484;28;20204;-82
2022/07/14 11:04:01;;;;;;;5.13;1.95;;;;;;;;;;4947330;28;20194;-84
2022/07/14 11:06:27;;;;;;;4.05;1.80;;;;;;;;;;4955828;28;20208;-82
2022/07/14 11:09:11;;;;;;;2.20;2.00;;;;;;;;;;4964916;28;20174;-83
2022/07/14 11:11:39;;;;;;;2.72;1.88;;;;;;;;;;4952613;28;20182;-84
2022/07/14 11:14:06;;;;;;;3.67;2.17;;;;;;;;;;4954409;28;20188;-83
2022/07/14 11:16:47;;;;;;;5.97;2.47;;;;;;;;;;4969647;28;20216;-84
2022/07/14 11:19:24;;;;;;;4.57;2.22;;;;;;;;;;4968224;28;20209;-81
2022/07/14 11:22:08;;;;;;;2.92;2.30;;;;;;;;;;4961451;28;20196;-84
2022/07/14 11:24:35;;;;;;;4.93;2.42;;;;;;;;;;4957256;28;20218;-85
2022/07/14 11:27:19;;;;;;;2.75;2.20;;;;;;;;;;4954682;28;20213;-85
2022/07/14 11:29:45;;;;;;;2.30;2.10;;;;;;;;;;4971924;28;20272;-83
2022/07/14 11:32:27;;;;;;;3.83;1.80;;;;;;;;;;4958418;28;20272;-86
2022/07/14 11:37:54;;;;;;;3.53;2.25;;;;;;;;;;4955410;28;20184;-83
2022/07/14 11:40:38;;;;;;;3.63;2.20;;;;;;;;;;4967828;28;20181;-82
2022/07/14 11:43:22;;;;;;;2.70;2.00;;;;;;;;;;4976686;28;20181;-84
2022/07/14 11:46:01;;;;;;;3.45;1.90;;;;;;;;;;4977831;28;20212;-84
2022/07/14 11:48:46;;;;;;;7.13;2.63;;;;;;;;;;4956151;28;20247;-84
2022/07/14 11:51:20;;;;;;;3.55;1.80;;;;;;;;;;4972718;28;20324;-84
2022/07/14 11:53:46;;;;;;;2.95;2.00;;;;;;;;;;4951725;28;20179;-83
2022/07/14 11:56:12;;;;;;;4.55;2.20;;;;;;;;;;4953079;28;20205;-84
2022/07/14 11:58:39;;;;;;;2.60;1.83;;;;;;;;;;4953532;28;20183;-85
2022/07/14 12:01:05;;;;;;;2.22;1.95;;;;;;;;;;4956645;28;20185;-84
2022/07/14 12:03:30;;;;;;;5.38;2.22;;;;;;;;;;4951728;28;20284;-84
2022/07/14 12:05:56;;;;;;;2.22;1.90;;;;;;;;;;4955061;28;20217;-84
2022/07/14 12:08:27;;;;;;;3.08;2.13;;;;;;;;;;4955053;28;20252;-84
2022/07/14 12:10:53;;;;;;;4.95;2.67;;;;;;;;;;4953021;28;20228;-83
2022/07/14 12:13:18;;;;;;;2.88;1.90;;;;;;;;;;4957827;28;20186;-83
2022/07/14 12:15:44;;;;;;;3.30;1.92;;;;;;;;;;4948895;28;20190;-84
2022/07/14 12:18:10;;;;;;;2.85;2.03;;;;;;;;;;4952554;28;20220;-84
2022/07/14 12:20:37;;;;;;;4.63;1.95;;;;;;;;;;4966561;28;20178;-83
2022/07/14 12:23:03;;;;;;;4.35;2.33;;;;;;;;;;4965999;28;20193;-82
2022/07/14 12:25:30;;;;;;;2.13;1.90;;;;;;;;;;4955719;28;20213;-83
2022/07/14 12:27:56;;;;;;;2.40;1.98;;;;;;;;;;4952617;28;20446;-84
2022/07/14 12:30:22;;;;;;;1.95;1.50;;;;;;;;;;4957723;28;20194;-83
2022/07/14 12:32:54;;;;;;;1.60;1.50;;;;;;;;;;4950295;28;20177;-83
2022/07/14 12:35:20;;;;;;;1.50;1.40;;;;;;;;;;4951651;28;20228;-82
2022/07/14 12:37:45;;;;;;;1.88;1.70;;;;;;;;;;4953334;28;20196;-84
2022/07/14 12:40:12;;;;;;;3.25;1.90;;;;;;;;;;4955210;28;20193;-84
2022/07/14 12:42:37;;;;;;;3.15;1.83;;;;;;;;;;4954573;28;20174;-84
2022/07/14 12:45:03;;;;;;;6.15;2.20;;;;;;;;;;4953176;28;20240;-84
2022/07/14 12:47:29;;;;;;;3.53;1.70;;;;;;;;;;4965850;28;20223;-84
2022/07/14 12:49:54;;;;;;;2.15;1.92;;;;;;;;;;4950095;28;20229;-82
2022/07/14 12:52:19;;;;;;;4.95;2.10;;;;;;;;;;4952348;28;20189;-82
2022/07/14 12:54:45;;;;;;;2.45;1.88;;;;;;;;;;4971208;28;20236;-84
2022/07/14 12:57:21;;;;;;;2.45;2.25;;;;;;;;;;4953669;28;20229;-86
2022/07/14 12:59:47;;;;;;;2.50;2.30;;;;;;;;;;4949340;28;20192;-85
2022/07/14 13:02:18;;;;;;;2.38;1.85;;;;;;;;;;4950908;28;20186;-85
2022/07/14 13:04:44;;;;;;;4.53;2.00;;;;;;;;;;4952821;28;20185;-83
2022/07/14 13:07:13;;;;;;;2.00;1.90;;;;;;;;;;4947282;28;20236;-85
2022/07/14 13:09:39;;;;;;;2.22;2.00;;;;;;;;;;4976257;28;20177;-86
2022/07/14 13:12:23;;;;;;;2.30;2.10;;;;;;;;;;4952875;28;20209;-85
2022/07/14 13:14:59;;;;;;;2.22;1.67;;;;;;;;;;4951987;28;20200;-86
2022/07/14 13:17:44;;;;;;;2.53;2.10;;;;;;;;;;4955963;28;20188;-84
2022/07/14 13:20:31;;;;;;;2.20;2.00;;;;;;;;;;4952188;28;20332;-85
2022/07/14 13:22:56;;;;;;;2.17;1.90;;;;;;;;;;4951739;28;20182;-83
2022/07/14 13:25:21;;;;;;;2.40;2.20;;;;;;;;;;4948818;28;20232;-84
2022/07/14 13:27:46;;;;;;;2.30;2.20;;;;;;;;;;4950030;28;20181;-85
2022/07/14 13:30:12;;;;;;;1.92;1.83;;;;;;;;;;4956504;28;20240;-85
2022/07/14 13:32:37;;;;;;;2.42;2.00;;;;;;;;;;4947835;28;20197;-85
2022/07/14 13:35:02;;;;;;;3.50;2.08;;;;;;;;;;4950263;28;20181;-84
2022/07/14 13:37:28;;;;;;;2.45;2.10;;;;;;;;;;4949894;28;20177;-85
2022/07/14 13:39:53;;;;;;;7.35;2.70;;;;;;;;;;4952612;28;20207;-85
2022/07/14 13:42:18;;;;;;;4.47;2.17;;;;;;;;;;4946938;28;20184;-84
2022/07/14 13:44:43;;;;;;;2.22;2.03;;;;;;;;;;4970621;28;20193;-83
2022/07/14 13:47:09;;;;;;;3.05;2.10;;;;;;;;;;4947903;28;20229;-84
2022/07/14 13:52:07;;;;;;;3.25;2.42;;;;;;;;;;4946646;28;20230;-84
2022/07/14 13:52:19;;;;;;;2.50;2.30;;;;;;;;;;4949820;28;20189;-80
2022/07/14 13:54:45;;;;;;;3.63;2.20;;;;;;;;;;4948991;28;20177;-84
2022/07/14 13:57:10;;;;;;;2.50;2.30;;;;;;;;;;4952013;28;20256;-85
2022/07/14 13:59:37;;;;;;;4.25;2.63;;;;;;;;;;4952893;28;20248;-83
2022/07/14 14:02:02;;;;;;;4.78;2.70;;;;;;;;;;4948286;28;20214;-84
2022/07/14 14:04:27;;;;;;;2.42;2.20;;;;;;;;;;4971616;28;20228;-83
2022/07/14 14:06:53;;;;;;;2.50;2.30;;;;;;;;;;4947684;28;20238;-84
2022/07/14 14:09:19;;;;;;;2.97;2.03;;;;;;;;;;4951985;28;20272;-85
2022/07/14 14:11:45;;;;;;;2.40;2.20;;;;;;;;;;4951476;28;20233;-85
2022/07/14 14:14:10;;;;;;;2.65;2.45;;;;;;;;;;4950869;28;20232;-87
2022/07/14 14:16:36;;;;;;;2.53;2.30;;;;;;;;;;4953223;28;20181;-86
2022/07/14 14:19:01;;;;;;;3.47;2.20;;;;;;;;;;4950851;28;20185;-87
2022/07/14 14:21:27;;;;;;;5.20;2.47;;;;;;;;;;4951339;28;20192;-85
2022/07/14 14:23:53;;;;;;;3.55;2.72;;;;;;;;;;4947882;28;20196;-86
2022/07/14 14:26:18;;;;;;;4.13;2.35;;;;;;;;;;4950627;28;20205;-83
2022/07/14 14:28:44;;;;;;;3.15;2.50;;;;;;;;;;4953413;28;20183;-83
2022/07/14 14:31:09;;;;;;;2.75;2.55;;;;;;;;;;4952103;28;20197;-86
2022/07/14 14:33:35;;;;;;;3.78;1.98;;;;;;;;;;4953273;28;20184;-84
2022/07/14 14:36:01;;;;;;;2.90;2.33;;;;;;;;;;4957701;28;20490;-84
2022/07/14 14:38:26;;;;;;;2.50;2.30;;;;;;;;;;4951321;28;20192;-83
2022/07/14 14:40:54;;;;;;;5.10;2.20;;;;;;;;;;4948648;28;20197;-85
2022/07/14 14:43:19;;;;;;;2.25;2.00;;;;;;;;;;4952913;28;20240;-87
2022/07/14 14:45:45;;;;;;;3.78;2.05;;;;;;;;;;4958594;28;20224;-84
2022/07/14 14:48:11;;;;;;;2.95;2.35;;;;;;;;;;4951459;28;20181;-85
2022/07/14 14:50:37;;;;;;;5.18;2.53;;;;;;;;;;4949577;28;20276;-84